createdAt,value
2022-12-13T00:01:57.697Z,-3.11
2022-12-13T00:04:24.986Z,-2.93
2022-12-13T00:06:54.247Z,-3.17
2022-12-13T00:09:21.967Z,-3.04
2022-12-13T00:11:48.608Z,-2.89
2022-12-13T00:14:15.464Z,-2.80
2022-12-13T00:16:45.739Z,-2.95
2022-12-13T00:19:12.521Z,-2.45
2022-12-13T00:21:38.976Z,-2.42
2022-12-13T00:24:07.150Z,-2.46
2022-12-13T00:26:34.133Z,-2.58
2022-12-13T00:29:04.836Z,-2.88
2022-12-13T00:34:20.886Z,-2.86
2022-12-13T00:36:48.435Z,-2.46
2022-12-13T00:39:16.563Z,-2.58
2022-12-13T00:41:44.027Z,-2.48
2022-12-13T00:44:12.029Z,-2.56
2022-12-13T00:46:39.642Z,-3.01
2022-12-13T00:49:06.192Z,-3.02
2022-12-13T00:51:34.385Z,-2.83
2022-12-13T00:54:01.776Z,-2.59
2022-12-13T00:56:30.847Z,-2.74
2022-12-13T00:58:57.561Z,-2.83
2022-12-13T01:01:27.436Z,-3.25
2022-12-13T01:03:55.376Z,-2.98
2022-12-13T01:06:30.011Z,-2.82
2022-12-13T01:08:56.768Z,-2.98
2022-12-13T01:11:23.609Z,-3.00
2022-12-13T01:13:50.064Z,-2.96
2022-12-13T01:16:16.680Z,-3.04
2022-12-13T01:18:43.281Z,-3.04
2022-12-13T01:21:15.260Z,-2.84
2022-12-13T01:23:42.615Z,-2.80
2022-12-13T01:26:12.184Z,-2.87
2022-12-13T01:28:38.877Z,-3.60
2022-12-13T01:31:09.270Z,-3.47
2022-12-13T01:33:35.902Z,-3.29
2022-12-13T01:36:05.871Z,-3.24
2022-12-13T01:38:37.698Z,-3.19
2022-12-13T01:41:17.063Z,-2.86
2022-12-13T01:43:44.782Z,-2.78
2022-12-13T01:46:12.035Z,-2.75
2022-12-13T01:48:44.515Z,-2.91
2022-12-13T01:51:13.473Z,-2.81
2022-12-13T01:53:41.155Z,-3.01
2022-12-13T01:56:11.058Z,-2.90
2022-12-13T01:58:38.504Z,-2.67
2022-12-13T02:01:05.437Z,-2.77
2022-12-13T02:03:33.188Z,-2.67
2022-12-13T02:06:07.435Z,-2.66
2022-12-13T02:08:36.118Z,-2.61
2022-12-13T02:11:03.539Z,-2.65
2022-12-13T02:13:29.999Z,-2.67
2022-12-13T02:16:06.607Z,-2.65
2022-12-13T02:18:48.721Z,-2.83
2022-12-13T02:21:41.176Z,-2.79
2022-12-13T02:24:30.864Z,-3.02
2022-12-13T02:27:09.610Z,-2.99
2022-12-13T02:29:51.153Z,-2.90
2022-12-13T02:32:32.114Z,-2.77
2022-12-13T02:35:17.818Z,-2.69
2022-12-13T02:38:03.256Z,-2.78
2022-12-13T02:40:37.781Z,-2.54
2022-12-13T02:43:12.264Z,-2.58
2022-12-13T02:45:44.572Z,-2.35
2022-12-13T02:48:12.413Z,-2.31
2022-12-13T02:50:39.458Z,-2.28
2022-12-13T02:53:07.423Z,-2.44
2022-12-13T02:55:35.941Z,-2.48
2022-12-13T02:58:02.387Z,-2.33
2022-12-13T03:00:49.011Z,-2.48
2022-12-13T03:03:30.636Z,-2.30
2022-12-13T03:06:24.059Z,-2.29
2022-12-13T03:09:10.796Z,-2.21
2022-12-13T03:12:24.007Z,-2.21
2022-12-13T03:15:19.398Z,-2.05
2022-12-13T03:17:50.795Z,-2.36
2022-12-13T03:20:23.336Z,-2.15
2022-12-13T03:22:51.319Z,-2.07
2022-12-13T03:25:31.773Z,-2.18
2022-12-13T03:28:01.340Z,-2.12
2022-12-13T03:30:29.003Z,-2.08
2022-12-13T03:32:55.438Z,-1.93
2022-12-13T03:35:22.791Z,-1.89
2022-12-13T03:37:49.609Z,-1.81
2022-12-13T03:40:16.371Z,-1.75
2022-12-13T03:42:42.867Z,-2.05
2022-12-13T03:45:09.666Z,-2.48
2022-12-13T03:47:36.125Z,-2.21
2022-12-13T03:50:25.328Z,-1.89
2022-12-13T03:52:51.357Z,-1.96
2022-12-13T03:55:18.678Z,-1.71
2022-12-13T03:57:45.135Z,-1.63
2022-12-13T04:00:12.266Z,-1.80
2022-12-13T04:02:38.820Z,-1.70
2022-12-13T04:05:06.132Z,-2.08
2022-12-13T04:07:34.180Z,-2.07
2022-12-13T04:10:01.336Z,-2.10
2022-12-13T04:12:48.603Z,-2.49
2022-12-13T04:15:15.988Z,-2.86
2022-12-13T04:17:42.918Z,-2.75
2022-12-13T04:20:17.429Z,-2.48
2022-12-13T04:22:43.866Z,-2.42
2022-12-13T04:25:12.348Z,-2.42
2022-12-13T04:27:39.026Z,-2.55
2022-12-13T04:30:06.674Z,-2.67
2022-12-13T04:32:33.172Z,-2.67
2022-12-13T04:35:01.358Z,-2.89
2022-12-13T04:37:28.449Z,-2.82
2022-12-13T04:40:00.468Z,-2.70
2022-12-13T04:42:27.540Z,-2.74
2022-12-13T04:44:54.415Z,-2.98
2022-12-13T04:47:20.851Z,-3.24
2022-12-13T04:49:48.015Z,-3.05
2022-12-13T04:52:22.074Z,-3.15
2022-12-13T04:54:55.917Z,-3.42
2022-12-13T04:57:22.953Z,-3.34
2022-12-13T04:59:49.479Z,-3.25
2022-12-13T05:02:23.466Z,-3.10
2022-12-13T05:04:53.581Z,-3.44
2022-12-13T05:07:21.415Z,-3.72
2022-12-13T05:09:47.873Z,-3.41
2022-12-13T05:12:23.057Z,-3.45
2022-12-13T05:14:51.550Z,-3.49
2022-12-13T05:17:18.242Z,-3.39
2022-12-13T05:19:44.747Z,-3.34
2022-12-13T05:22:19.755Z,-3.47
2022-12-13T05:24:48.033Z,-3.55
2022-12-13T05:27:24.949Z,-3.60
2022-12-13T05:30:03.154Z,-3.42
2022-12-13T05:32:33.892Z,-3.63
2022-12-13T05:35:11.700Z,-3.52
2022-12-13T05:37:38.149Z,-3.43
2022-12-13T05:40:05.439Z,-3.76
2022-12-13T05:42:31.856Z,-3.50
2022-12-13T05:44:58.339Z,-4.19
2022-12-13T05:47:24.751Z,-3.97
2022-12-13T05:49:52.130Z,-3.86
2022-12-13T05:52:19.716Z,-3.92
2022-12-13T05:54:46.184Z,-4.15
2022-12-13T05:57:13.037Z,-3.93
2022-12-13T05:59:39.468Z,-3.93
2022-12-13T06:02:06.015Z,-3.96
2022-12-13T06:04:32.673Z,-4.04
2022-12-13T06:06:59.120Z,-3.91
2022-12-13T06:09:25.605Z,-4.12
2022-12-13T06:11:52.607Z,-4.13
2022-12-13T06:14:27.891Z,-4.32
2022-12-13T06:16:54.571Z,-4.01
2022-12-13T06:19:21.983Z,-4.07
2022-12-13T06:21:49.618Z,-3.90
2022-12-13T06:24:20.947Z,-3.84
2022-12-13T06:26:48.677Z,-3.84
2022-12-13T06:29:24.302Z,-3.95
2022-12-13T06:32:03.313Z,-3.76
2022-12-13T06:34:32.520Z,-3.77
2022-12-13T06:36:58.986Z,-3.89
2022-12-13T06:39:32.666Z,-3.97
2022-12-13T06:42:00.646Z,-4.14
2022-12-13T06:44:27.114Z,-4.21
2022-12-13T06:46:53.559Z,-4.07
2022-12-13T06:49:38.935Z,-4.22
2022-12-13T06:52:05.674Z,-4.17
2022-12-13T06:54:32.098Z,-4.17
2022-12-13T06:56:58.565Z,-4.36
2022-12-13T06:59:25.014Z,-4.13
2022-12-13T07:01:51.542Z,-4.21
2022-12-13T07:04:30.173Z,-4.07
2022-12-13T07:07:01.994Z,-4.31
2022-12-13T07:09:32.665Z,-4.17
2022-12-13T07:11:59.378Z,-4.35
2022-12-13T07:14:25.918Z,-4.15
2022-12-13T07:16:53.775Z,-4.25
2022-12-13T07:19:24.755Z,-4.46
2022-12-13T07:21:52.072Z,-4.31
2022-12-13T07:24:18.789Z,-4.10
2022-12-13T07:26:45.266Z,-4.19
2022-12-13T07:29:11.766Z,-4.19
2022-12-13T07:31:38.297Z,-4.17
2022-12-13T07:34:04.909Z,-4.10
2022-12-13T07:36:31.464Z,-4.14
2022-12-13T07:38:58.492Z,-4.13
2022-12-13T07:41:26.157Z,-3.99
2022-12-13T07:43:54.816Z,-3.95
2022-12-13T07:46:25.969Z,-3.79
2022-12-13T07:49:02.729Z,-4.04
2022-12-13T07:51:29.280Z,-3.77
2022-12-13T07:53:55.743Z,-3.76
2022-12-13T07:56:22.218Z,-3.55
2022-12-13T07:58:48.728Z,-3.49
2022-12-13T08:01:15.206Z,-3.46
2022-12-13T08:03:41.642Z,-3.49
2022-12-13T08:06:12.644Z,-3.61
2022-12-13T08:08:39.844Z,-3.42
2022-12-13T08:11:09.047Z,-3.72
2022-12-13T08:13:36.278Z,-3.32
2022-12-13T08:16:28.192Z,-3.31
2022-12-13T08:19:01.738Z,-3.56
2022-12-13T08:21:54.579Z,-3.17
2022-12-13T08:24:23.919Z,-3.05
2022-12-13T08:26:50.496Z,-3.34
2022-12-13T08:29:23.207Z,-3.20
2022-12-13T08:32:01.655Z,-3.50
2022-12-13T08:34:28.302Z,-3.53
2022-12-13T08:37:02.143Z,-3.35
2022-12-13T08:39:30.609Z,-3.32
2022-12-13T08:42:17.123Z,-3.26
2022-12-13T08:44:53.019Z,-3.20
2022-12-13T08:47:22.861Z,-3.10
2022-12-13T08:50:01.481Z,-3.14
2022-12-13T08:52:30.387Z,-2.80
2022-12-13T08:54:56.811Z,-2.96
2022-12-13T08:57:23.321Z,-2.66
2022-12-13T08:59:49.908Z,-2.64
2022-12-13T09:02:16.616Z,-2.70
2022-12-13T09:04:43.635Z,-2.44
2022-12-13T09:07:10.185Z,-2.56
2022-12-13T09:09:37.429Z,-2.39
2022-12-13T09:12:11.038Z,-2.38
2022-12-13T09:14:51.767Z,-2.12
2022-12-13T09:17:24.412Z,-1.91
2022-12-13T09:19:57.827Z,-1.68
2022-12-13T09:22:33.186Z,-1.50
2022-12-13T09:25:02.535Z,-1.52
2022-12-13T09:27:30.615Z,-1.39
2022-12-13T09:29:57.466Z,-1.34
2022-12-13T09:32:25.252Z,-1.35
2022-12-13T09:34:51.765Z,-1.30
2022-12-13T09:37:23.135Z,-1.15
2022-12-13T09:39:54.846Z,-1.33
2022-12-13T09:42:30.192Z,-1.13
2022-12-13T09:45:04.517Z,-1.02
2022-12-13T09:47:35.219Z,-0.99
2022-12-13T09:50:15.126Z,-0.89
2022-12-13T09:52:43.237Z,-0.82
2022-12-13T09:55:24.989Z,-0.75
2022-12-13T09:57:52.289Z,-0.84
2022-12-13T10:00:21.804Z,-0.87
2022-12-13T10:02:58.344Z,-0.80
2022-12-13T10:05:42.076Z,-0.71
2022-12-13T10:08:18.197Z,-0.71
2022-12-13T10:10:45.121Z,-0.88
2022-12-13T10:13:25.681Z,-0.91
2022-12-13T10:15:57.792Z,-0.93
2022-12-13T10:18:44.028Z,-0.91
2022-12-13T10:21:29.552Z,-1.11
2022-12-13T10:24:25.242Z,-0.98
2022-12-13T10:26:52.140Z,-1.10
2022-12-13T10:29:18.756Z,-1.17
2022-12-13T10:31:47.660Z,-0.83
2022-12-13T10:34:17.094Z,-0.90
2022-12-13T10:36:43.764Z,-0.69
2022-12-13T10:39:34.917Z,-0.39
2022-12-13T10:42:12.616Z,-0.17
2022-12-13T10:44:39.078Z,0.07
2022-12-13T10:47:22.462Z,0.12
2022-12-13T10:49:59.013Z,0.05
2022-12-13T10:52:43.526Z,0.13
2022-12-13T10:55:30.921Z,0.21
2022-12-13T10:58:00.869Z,0.17
2022-12-13T11:00:32.304Z,0.21
2022-12-13T11:02:58.987Z,0.25
2022-12-13T11:05:34.039Z,0.13
2022-12-13T11:08:15.542Z,0.28
2022-12-13T11:10:42.963Z,0.18
2022-12-13T11:13:25.636Z,0.46
2022-12-13T11:15:55.809Z,0.33
2022-12-13T11:18:24.622Z,0.30
2022-12-13T11:20:57.471Z,0.24
2022-12-13T11:23:34.616Z,0.06
2022-12-13T11:26:07.052Z,0.23
2022-12-13T11:28:51.747Z,0.53
2022-12-13T11:31:21.253Z,0.41
2022-12-13T11:34:21.747Z,0.34
2022-12-13T11:36:58.864Z,0.25
2022-12-13T11:39:33.399Z,0.30
2022-12-13T11:42:05.542Z,0.83
2022-12-13T11:44:47.711Z,0.78
2022-12-13T11:47:20.883Z,1.04
2022-12-13T11:49:48.033Z,0.88
2022-12-13T11:52:20.204Z,0.68
2022-12-13T11:54:59.961Z,0.51
2022-12-13T11:57:51.100Z,0.16
2022-12-13T12:00:33.587Z,0.27
2022-12-13T12:03:17.079Z,0.75
2022-12-13T12:05:55.985Z,0.74
2022-12-13T12:08:54.069Z,0.59
2022-12-13T12:11:28.033Z,0.90
2022-12-13T12:13:59.230Z,0.93
2022-12-13T12:16:31.152Z,0.81
2022-12-13T12:19:01.401Z,0.76
2022-12-13T12:22:13.178Z,0.67
2022-12-13T12:25:02.048Z,0.91
2022-12-13T12:27:50.054Z,1.08
2022-12-13T12:30:55.651Z,0.78
2022-12-13T12:33:39.449Z,0.86
2022-12-13T12:36:22.155Z,1.33
2022-12-13T12:38:57.918Z,1.38
2022-12-13T12:41:45.968Z,1.37
2022-12-13T12:44:19.883Z,1.27
2022-12-13T12:47:31.632Z,1.33
2022-12-13T12:50:10.986Z,1.57
2022-12-13T12:53:25.487Z,1.64
2022-12-13T12:56:17.399Z,1.45
2022-12-13T12:58:51.781Z,1.30
2022-12-13T13:01:25.705Z,1.17
2022-12-13T13:03:54.072Z,1.30
2022-12-13T13:06:40.034Z,1.37
2022-12-13T13:09:08.772Z,0.82
2022-12-13T13:11:42.812Z,0.68
2022-12-13T13:14:31.546Z,0.68
2022-12-13T13:17:23.639Z,1.48
2022-12-13T13:20:00.040Z,1.29
2022-12-13T13:22:43.527Z,1.20
2022-12-13T13:25:31.186Z,1.27
2022-12-13T13:28:06.500Z,1.84
2022-12-13T13:30:33.341Z,1.64
2022-12-13T13:32:59.873Z,1.70
2022-12-13T13:35:36.146Z,1.74
2022-12-13T13:38:06.992Z,1.51
2022-12-13T13:40:38.350Z,1.83
2022-12-13T13:43:16.508Z,1.49
2022-12-13T13:45:57.220Z,1.59
2022-12-13T13:48:51.834Z,1.25
2022-12-13T13:55:10.770Z,1.50
2022-12-13T13:58:08.752Z,1.27
2022-12-13T14:00:58.244Z,0.98
2022-12-13T14:04:02.869Z,0.90
2022-12-13T14:06:53.293Z,1.27
2022-12-13T14:09:46.206Z,0.85
2022-12-13T14:12:15.693Z,1.32
2022-12-13T14:15:01.186Z,1.03
2022-12-13T14:17:52.783Z,1.02
2022-12-13T14:20:39.111Z,1.33
2022-12-13T14:23:42.884Z,1.49
2022-12-13T14:26:43.886Z,1.72
2022-12-13T14:29:17.293Z,1.69
2022-12-13T14:31:47.143Z,1.86
2022-12-13T14:34:43.621Z,1.33
2022-12-13T14:37:31.119Z,1.31
2022-12-13T14:39:58.844Z,1.29
2022-12-13T14:42:33.731Z,1.02
2022-12-13T14:45:18.786Z,0.65
2022-12-13T14:47:45.435Z,1.10
2022-12-13T14:50:18.422Z,1.05
2022-12-13T14:52:55.279Z,1.13
2022-12-13T14:55:36.359Z,1.19
2022-12-13T14:58:19.359Z,0.99
2022-12-13T15:00:46.102Z,0.89
2022-12-13T15:03:22.427Z,1.22
2022-12-13T15:06:00.536Z,0.98
2022-12-13T15:08:27.449Z,1.29
2022-12-13T15:11:03.079Z,1.49
2022-12-13T15:13:44.419Z,0.94
2022-12-13T15:16:25.718Z,0.73
2022-12-13T15:19:32.026Z,1.22
2022-12-13T15:22:05.924Z,1.28
2022-12-13T15:24:38.183Z,1.00
2022-12-13T15:27:04.970Z,1.10
2022-12-13T15:29:33.265Z,0.87
2022-12-13T15:32:01.168Z,1.32
2022-12-13T15:34:28.563Z,1.08
2022-12-13T15:37:04.105Z,1.23
2022-12-13T15:39:31.296Z,0.74
2022-12-13T15:41:58.264Z,1.36
2022-12-13T15:44:39.558Z,0.67
2022-12-13T15:47:28.828Z,0.87
2022-12-13T15:50:03.693Z,1.10
2022-12-13T15:52:39.204Z,0.97
2022-12-13T15:55:05.684Z,0.45
2022-12-13T15:57:34.463Z,0.88
2022-12-13T16:00:15.255Z,0.51
2022-12-13T16:03:13.615Z,0.77
2022-12-13T16:05:51.615Z,0.51
2022-12-13T16:08:33.150Z,0.57
2022-12-13T16:11:00.319Z,0.94
2022-12-13T16:13:39.145Z,0.96
2022-12-13T16:16:27.059Z,0.71
2022-12-13T16:18:59.207Z,0.55
2022-12-13T16:21:26.882Z,0.98
2022-12-13T16:23:53.843Z,0.81
2022-12-13T16:26:28.795Z,0.96
2022-12-13T16:28:58.727Z,0.96
2022-12-13T16:31:35.853Z,1.28
2022-12-13T16:34:03.975Z,0.79
2022-12-13T16:36:30.566Z,0.92
2022-12-13T16:38:58.110Z,1.11
2022-12-13T16:41:25.139Z,1.22
2022-12-13T16:44:00.587Z,0.65
2022-12-13T16:47:14.280Z,0.54
2022-12-13T16:49:28.577Z,0.61
2022-12-13T16:51:55.946Z,0.63
2022-12-13T16:54:23.687Z,1.41
2022-12-13T16:56:51.308Z,1.14
2022-12-13T16:59:19.892Z,0.36
2022-12-13T17:01:47.505Z,0.20
2022-12-13T17:04:20.535Z,0.83
2022-12-13T17:06:54.492Z,0.35
2022-12-13T17:09:22.659Z,0.15
2022-12-13T17:11:49.202Z,-0.08
2022-12-13T17:14:21.981Z,0.05
2022-12-13T17:16:48.556Z,-0.11
2022-12-13T17:19:15.786Z,-0.03
2022-12-13T17:21:42.436Z,0.17
2022-12-13T17:24:08.931Z,0.42
2022-12-13T17:26:35.676Z,0.34
2022-12-13T17:29:02.203Z,0.25
2022-12-13T17:31:36.103Z,0.25
2022-12-13T17:34:04.114Z,0.45
2022-12-13T17:36:31.587Z,-0.08
2022-12-13T17:38:58.441Z,0.03
2022-12-13T17:41:25.935Z,-0.52
2022-12-13T17:43:52.611Z,-0.33
2022-12-13T17:46:19.482Z,-0.09
2022-12-13T17:48:47.371Z,-0.44
2022-12-13T17:51:18.275Z,-0.59
2022-12-13T17:53:44.834Z,-0.40
2022-12-13T17:56:15.860Z,-0.73
2022-12-13T17:58:42.739Z,-0.54
2022-12-13T18:01:20.430Z,-0.43
2022-12-13T18:03:48.880Z,-0.74
2022-12-13T18:06:18.840Z,-0.50
2022-12-13T18:08:46.678Z,-0.48
2022-12-13T18:11:33.627Z,-0.79
2022-12-13T18:14:01.879Z,-0.65
2022-12-13T18:16:36.971Z,-0.30
2022-12-13T18:19:09.082Z,-1.02
2022-12-13T18:21:36.915Z,-0.46
2022-12-13T18:24:04.208Z,-1.31
2022-12-13T18:26:31.770Z,-1.28
2022-12-13T18:28:58.414Z,-1.15
2022-12-13T18:31:25.299Z,-1.02
2022-12-13T18:33:53.310Z,-0.47
2022-12-13T18:36:21.120Z,-0.51
2022-12-13T18:38:48.147Z,-1.04
2022-12-13T18:41:21.100Z,-0.85
2022-12-13T18:43:47.922Z,-1.76
2022-12-13T18:46:15.828Z,-1.31
2022-12-13T18:48:43.789Z,-1.55
2022-12-13T18:51:10.831Z,-1.41
2022-12-13T18:53:38.326Z,-0.81
2022-12-13T18:56:09.579Z,-1.38
2022-12-13T18:58:47.359Z,-1.54
2022-12-13T19:01:15.736Z,-1.32
2022-12-13T19:03:46.991Z,-1.48
2022-12-13T19:06:19.101Z,-1.22
2022-12-13T19:08:51.457Z,-0.99
2022-12-13T19:11:18.860Z,-1.23
2022-12-13T19:13:45.534Z,-1.20
2022-12-13T19:16:14.639Z,-1.14
2022-12-13T19:18:42.561Z,-1.09
2022-12-13T19:21:12.521Z,-1.22
2022-12-13T19:23:40.794Z,-1.40
2022-12-13T19:26:13.320Z,-1.44
2022-12-13T19:28:41.577Z,-1.73
2022-12-13T19:31:10.089Z,-1.18
2022-12-13T19:33:36.683Z,-1.42
2022-12-13T19:36:03.875Z,-1.38
2022-12-13T19:38:30.641Z,-1.65
2022-12-13T19:40:59.374Z,-1.32
2022-12-13T19:43:27.484Z,-1.45
2022-12-13T19:45:56.359Z,-1.49
2022-12-13T19:48:23.009Z,-1.60
2022-12-13T19:51:05.370Z,-1.28
2022-12-13T19:53:32.811Z,-1.59
2022-12-13T19:56:01.400Z,-1.70
2022-12-13T19:58:28.193Z,-1.62
2022-12-13T20:01:01.344Z,-1.38
2022-12-13T20:03:28.345Z,-1.61
2022-12-13T20:05:58.905Z,-1.22
2022-12-13T20:08:25.629Z,-1.08
2022-12-13T20:11:13.225Z,-1.15
2022-12-13T20:13:39.898Z,-1.03
2022-12-13T20:16:06.992Z,-0.65
2022-12-13T20:18:34.274Z,-0.86
2022-12-13T20:21:11.497Z,-0.77
2022-12-13T20:23:38.968Z,-1.10
2022-12-13T20:26:08.568Z,-0.81
2022-12-13T20:28:35.147Z,-0.62
2022-12-13T20:31:08.934Z,-0.82
2022-12-13T20:33:35.780Z,-0.37
2022-12-13T20:36:26.163Z,-1.05
2022-12-13T20:38:55.988Z,-1.41
2022-12-13T20:41:23.678Z,-0.98
2022-12-13T20:43:55.004Z,-1.40
2022-12-13T20:46:22.844Z,-1.13
2022-12-13T20:48:50.335Z,-1.04
2022-12-13T20:51:19.519Z,-0.61
2022-12-13T20:53:48.268Z,-0.59
2022-12-13T20:56:17.545Z,-0.66
2022-12-13T20:58:44.379Z,-0.68
2022-12-13T21:01:25.327Z,-0.67
2022-12-13T21:03:57.127Z,-0.70
2022-12-13T21:06:24.117Z,-0.98
2022-12-13T21:09:00.054Z,-0.96
2022-12-13T21:11:38.592Z,-0.90
2022-12-13T21:14:25.261Z,-0.84
2022-12-13T21:17:00.029Z,-0.98
2022-12-13T21:19:38.895Z,-1.23
2022-12-13T21:22:06.393Z,-1.48
2022-12-13T21:24:32.864Z,-1.48
2022-12-13T21:26:59.925Z,-1.41
2022-12-13T21:29:26.384Z,-1.50
2022-12-13T21:31:54.690Z,-1.34
2022-12-13T21:34:22.414Z,-1.30
2022-12-13T21:36:52.097Z,-1.19
2022-12-13T21:39:20.189Z,-1.35
2022-12-13T21:41:46.786Z,-1.40
2022-12-13T21:44:16.366Z,-1.25
2022-12-13T21:49:30.101Z,-1.48
2022-12-13T21:51:56.546Z,-1.53
2022-12-13T21:54:23.074Z,-1.76
2022-12-13T21:57:08.077Z,-1.48
2022-12-13T21:59:34.590Z,-1.52
2022-12-13T22:02:18.531Z,-1.50
2022-12-13T22:04:47.460Z,-1.82
2022-12-13T22:07:17.032Z,-1.97
2022-12-13T22:09:44.224Z,-1.89
2022-12-13T22:12:29.318Z,-1.71
2022-12-13T22:14:56.271Z,-1.81
2022-12-13T22:17:29.706Z,-1.61
2022-12-13T22:19:59.753Z,-1.85
2022-12-13T22:22:26.539Z,-1.60
2022-12-13T22:24:53.985Z,-1.64
2022-12-13T22:27:24.197Z,-1.65
2022-12-13T22:29:56.891Z,-1.60
2022-12-13T22:32:25.590Z,-1.85
2022-12-13T22:34:52.124Z,-1.85
2022-12-13T22:37:18.589Z,-1.69
2022-12-13T22:39:45.503Z,-2.20
2022-12-13T22:42:12.322Z,-2.17
2022-12-13T22:44:39.016Z,-2.09
2022-12-13T22:47:06.693Z,-1.94
2022-12-13T22:49:33.327Z,-1.89
2022-12-13T22:51:59.988Z,-1.93
2022-12-13T22:54:26.471Z,-1.87
2022-12-13T22:56:53.618Z,-1.61
2022-12-13T22:59:20.102Z,-1.64
2022-12-13T23:01:47.153Z,-1.87
2022-12-13T23:04:14.014Z,-1.98
2022-12-13T23:06:41.379Z,-1.67
2022-12-13T23:09:11.076Z,-2.02
2022-12-13T23:11:56.189Z,-1.79
2022-12-13T23:14:28.329Z,-1.68
2022-12-13T23:16:55.137Z,-1.96
2022-12-13T23:22:08.709Z,-2.03
2022-12-13T23:24:35.521Z,-1.85
2022-12-13T23:27:02.025Z,-2.06
2022-12-13T23:29:28.462Z,-1.90
2022-12-13T23:31:54.937Z,-1.74
2022-12-13T23:34:21.910Z,-1.99
2022-12-13T23:36:48.386Z,-2.10
2022-12-13T23:39:14.839Z,-2.24
2022-12-13T23:41:41.278Z,-2.20
2022-12-13T23:44:07.783Z,-2.00
2022-12-13T23:46:35.737Z,-1.95
2022-12-13T23:49:05.335Z,-2.10
2022-12-13T23:51:32.584Z,-2.29
2022-12-13T23:53:59.166Z,-1.89
2022-12-13T23:56:25.819Z,-2.23
2022-12-13T23:58:52.324Z,-2.16
